createdAt,value
2018-03-15T00:02:27.542Z,97943.34
2018-03-15T00:04:56.882Z,97933.61
2018-03-15T00:07:25.551Z,97944.07
2018-03-15T00:09:55.750Z,97938.19
2018-03-15T00:12:26.138Z,97939.55
2018-03-15T00:14:55.908Z,97933.64
2018-03-15T00:17:25.150Z,97935.91
2018-03-15T00:19:53.295Z,97931.82
2018-03-15T00:22:21.470Z,97936.79
2018-03-15T00:24:49.804Z,97940.81
2018-03-15T00:27:19.968Z,97938.06
2018-03-15T00:29:48.257Z,97937.28
2018-03-15T00:32:16.274Z,97933.53
2018-03-15T00:34:46.171Z,97936.32
2018-03-15T00:37:16.656Z,97924.38
2018-03-15T00:39:45.077Z,97925.34
2018-03-15T00:42:14.372Z,97922.70
2018-03-15T00:44:43.023Z,97926.97
2018-03-15T00:47:11.224Z,97928.71
2018-03-15T00:49:39.336Z,97928.23
2018-03-15T00:52:08.074Z,97928.08
2018-03-15T00:54:36.657Z,97926.91
2018-03-15T00:57:04.451Z,97926.68
2018-03-15T00:59:31.988Z,97912.45
2018-03-15T01:01:59.540Z,97917.44
2018-03-15T01:04:27.100Z,97914.36
2018-03-15T01:06:54.613Z,97910.92
2018-03-15T01:09:22.159Z,97914.92
2018-03-15T01:11:49.707Z,97907.66
2018-03-15T01:14:17.254Z,97910.31
2018-03-15T01:16:44.791Z,97898.67
2018-03-15T01:19:12.378Z,97901.94
2018-03-15T01:21:39.908Z,97906.08
2018-03-15T01:24:07.458Z,97894.50
2018-03-15T01:26:34.985Z,97892.12
2018-03-15T01:29:02.538Z,97881.20
2018-03-15T01:31:30.085Z,97879.12
2018-03-15T01:33:57.633Z,97876.50
2018-03-15T01:36:25.164Z,97870.53
2018-03-15T01:38:52.724Z,97869.41
2018-03-15T01:41:20.242Z,97867.73
2018-03-15T01:43:47.795Z,97870.09
2018-03-15T01:46:15.329Z,97864.07
2018-03-15T01:48:42.884Z,97852.77
2018-03-15T01:51:10.416Z,97854.05
2018-03-15T01:53:37.990Z,97861.14
2018-03-15T01:56:05.511Z,97851.82
2018-03-15T01:58:33.070Z,97853.09
2018-03-15T02:01:00.593Z,97857.59
2018-03-15T02:03:28.144Z,97852.45
2018-03-15T02:05:55.684Z,97855.43
2018-03-15T02:08:23.257Z,97848.70
2018-03-15T02:10:50.789Z,97834.25
2018-03-15T02:13:18.343Z,97833.03
2018-03-15T02:15:45.855Z,97837.48
2018-03-15T02:18:14.300Z,97825.91
2018-03-15T02:20:41.879Z,97819.41
2018-03-15T02:23:09.398Z,97816.23
2018-03-15T02:25:36.965Z,97818.61
2018-03-15T02:28:04.514Z,97810.29
2018-03-15T02:30:32.075Z,97802.71
2018-03-15T02:32:59.608Z,97792.00
2018-03-15T02:35:27.160Z,97796.53
2018-03-15T02:37:54.679Z,97775.95
2018-03-15T02:40:22.248Z,97771.84
2018-03-15T02:42:49.784Z,97766.33
2018-03-15T02:45:17.327Z,97762.95
2018-03-15T02:47:44.852Z,97757.94
2018-03-15T02:50:12.394Z,97759.42
2018-03-15T02:52:39.936Z,97756.44
2018-03-15T02:55:07.508Z,97759.20
2018-03-15T02:57:35.035Z,97764.56
2018-03-15T03:00:02.587Z,97755.98
2018-03-15T03:02:30.180Z,97749.89
2018-03-15T03:04:57.749Z,97750.09
2018-03-15T03:07:25.280Z,97742.09
2018-03-15T03:09:52.859Z,97740.33
2018-03-15T03:12:20.454Z,97736.15
2018-03-15T03:14:48.009Z,97737.54
2018-03-15T03:17:16.352Z,97690.87
2018-03-15T03:19:43.912Z,97722.05
2018-03-15T03:22:11.458Z,97726.53
2018-03-15T03:24:39.019Z,97718.16
2018-03-15T03:27:06.558Z,97717.45
2018-03-15T03:29:34.148Z,97710.61
2018-03-15T03:32:01.676Z,97706.83
2018-03-15T03:34:29.269Z,97714.37
2018-03-15T03:36:56.785Z,97708.06
2018-03-15T03:39:24.332Z,97694.27
2018-03-15T03:41:51.845Z,97696.73
2018-03-15T03:44:19.392Z,97683.58
2018-03-15T03:46:46.908Z,97690.97
2018-03-15T03:49:14.468Z,97692.75
2018-03-15T03:51:41.996Z,97681.53
2018-03-15T03:54:09.631Z,97673.42
2018-03-15T03:56:37.463Z,97660.44
2018-03-15T03:59:04.993Z,97662.27
2018-03-15T04:01:32.623Z,97663.43
2018-03-15T04:04:00.152Z,97661.09
2018-03-15T04:06:27.708Z,97658.89
2018-03-15T04:08:55.223Z,97645.37
2018-03-15T04:11:22.784Z,97645.20
2018-03-15T04:13:50.307Z,97643.84
2018-03-15T04:16:17.860Z,97644.52
2018-03-15T04:18:45.437Z,97626.58
2018-03-15T04:21:12.999Z,97629.02
2018-03-15T04:23:40.526Z,97618.08
2018-03-15T04:26:08.087Z,97615.70
2018-03-15T04:28:35.629Z,97605.58
2018-03-15T04:31:03.183Z,97604.89
2018-03-15T04:33:30.708Z,97616.39
2018-03-15T04:35:58.290Z,97611.72
2018-03-15T04:38:25.876Z,97602.09
2018-03-15T04:40:53.439Z,97608.30
2018-03-15T04:43:20.960Z,97601.27
2018-03-15T04:45:48.511Z,97604.12
2018-03-15T04:48:16.542Z,97604.39
2018-03-15T04:50:44.113Z,97592.41
2018-03-15T04:53:11.640Z,97603.50
2018-03-15T04:55:39.197Z,97588.29
2018-03-15T04:58:06.722Z,97593.86
2018-03-15T05:00:34.305Z,97592.40
2018-03-15T05:03:01.844Z,97593.90
2018-03-15T05:05:29.472Z,97582.29
2018-03-15T05:07:56.988Z,97582.39
2018-03-15T05:10:24.541Z,97585.92
2018-03-15T05:12:52.063Z,97574.67
2018-03-15T05:15:19.620Z,97585.97
2018-03-15T05:17:47.145Z,97576.69
2018-03-15T05:20:14.721Z,97581.42
2018-03-15T05:22:42.237Z,97577.42
2018-03-15T05:25:09.829Z,97570.41
2018-03-15T05:27:37.358Z,97566.66
2018-03-15T05:30:04.904Z,97556.77
2018-03-15T05:32:32.457Z,97549.80
2018-03-15T05:34:59.990Z,97557.58
2018-03-15T05:37:27.597Z,97555.84
2018-03-15T05:39:55.112Z,97552.04
2018-03-15T05:42:22.808Z,97545.06
2018-03-15T05:44:50.401Z,97542.86
2018-03-15T05:47:17.928Z,97535.98
2018-03-15T05:49:45.443Z,97525.58
2018-03-15T05:52:12.999Z,97528.28
2018-03-15T05:54:40.842Z,97507.92
2018-03-15T05:57:09.615Z,97527.80
2018-03-15T05:59:37.221Z,97518.81
2018-03-15T06:02:04.865Z,97512.22
2018-03-15T06:04:32.393Z,97513.53
2018-03-15T06:06:59.984Z,97515.99
2018-03-15T06:09:27.543Z,97511.79
2018-03-15T06:11:55.217Z,97517.81
2018-03-15T06:14:22.774Z,97523.42
2018-03-15T06:16:50.331Z,97524.55
2018-03-15T06:21:55.182Z,97520.70
2018-03-15T06:24:22.736Z,97516.63
2018-03-15T06:26:50.284Z,97521.50
2018-03-15T06:29:17.811Z,97511.48
2018-03-15T06:31:45.362Z,97505.28
2018-03-15T06:34:12.995Z,97513.02
2018-03-15T06:36:40.565Z,97500.28
2018-03-15T06:39:08.151Z,97501.67
2018-03-15T06:41:35.708Z,97490.36
2018-03-15T06:44:03.250Z,97486.59
2018-03-15T06:46:30.821Z,97498.19
2018-03-15T06:48:58.359Z,97494.09
2018-03-15T06:51:25.911Z,97489.30
2018-03-15T06:53:53.442Z,97488.60
2018-03-15T06:56:21.016Z,97489.41
2018-03-15T06:58:48.538Z,97487.80
2018-03-15T07:01:16.055Z,97491.86
2018-03-15T07:03:43.619Z,97476.00
2018-03-15T07:06:11.152Z,97484.97
2018-03-15T07:08:38.721Z,97492.92
2018-03-15T07:11:06.248Z,97494.21
2018-03-15T07:13:33.802Z,97489.38
2018-03-15T07:16:01.330Z,97488.98
2018-03-15T07:18:28.884Z,97498.41
2018-03-15T07:20:56.489Z,97498.80
2018-03-15T07:23:24.039Z,97501.07
2018-03-15T07:25:51.612Z,97496.58
2018-03-15T07:28:19.160Z,97484.56
2018-03-15T07:30:46.721Z,97472.28
2018-03-15T07:33:14.262Z,97483.99
2018-03-15T07:35:41.796Z,97481.66
2018-03-15T07:38:09.346Z,97476.84
2018-03-15T07:40:36.879Z,97477.61
2018-03-15T07:43:04.438Z,97471.30
2018-03-15T07:45:31.965Z,97474.23
2018-03-15T07:47:59.527Z,97485.54
2018-03-15T07:50:27.106Z,97474.41
2018-03-15T07:52:54.665Z,97472.59
2018-03-15T07:55:22.191Z,97471.52
2018-03-15T07:57:49.772Z,97474.89
2018-03-15T08:00:17.918Z,97477.49
2018-03-15T08:02:45.572Z,97473.88
2018-03-15T08:05:13.168Z,97474.67
2018-03-15T08:07:40.733Z,97469.59
2018-03-15T08:10:08.250Z,97483.83
2018-03-15T08:12:35.945Z,97483.67
2018-03-15T08:15:03.507Z,97481.64
2018-03-15T08:17:31.051Z,97482.09
2018-03-15T08:19:58.585Z,97481.91
2018-03-15T08:22:26.155Z,97488.45
2018-03-15T08:24:53.742Z,97488.80
2018-03-15T08:27:24.632Z,97478.33
2018-03-15T08:29:52.895Z,97473.33
2018-03-15T08:32:22.553Z,97465.18
2018-03-15T08:34:52.762Z,97473.66
2018-03-15T08:37:22.208Z,97468.77
2018-03-15T08:39:51.727Z,97462.55
2018-03-15T08:42:21.205Z,97464.15
2018-03-15T08:44:49.950Z,97477.33
2018-03-15T08:47:18.794Z,97477.81
2018-03-15T08:49:48.126Z,97482.83
2018-03-15T08:52:16.510Z,97474.36
2018-03-15T08:54:45.037Z,97451.42
2018-03-15T08:57:12.674Z,97474.77
2018-03-15T08:59:41.850Z,97482.17
2018-03-15T09:02:09.872Z,97485.29
2018-03-15T09:04:41.033Z,97489.34
2018-03-15T09:07:14.010Z,97495.34
2018-03-15T09:09:42.916Z,97481.95
2018-03-15T09:12:10.540Z,97489.30
2018-03-15T09:14:40.388Z,97482.12
2018-03-15T09:17:08.991Z,97476.62
2018-03-15T09:19:36.555Z,97473.05
2018-03-15T09:22:04.155Z,97456.40
2018-03-15T09:24:34.622Z,97448.55
2018-03-15T09:27:03.727Z,97448.45
2018-03-15T09:29:34.398Z,97433.44
2018-03-15T09:32:04.737Z,97436.03
2018-03-15T09:34:32.624Z,97428.30
2018-03-15T09:37:01.218Z,97423.28
2018-03-15T09:39:30.184Z,97422.58
2018-03-15T09:41:58.357Z,97413.14
2018-03-15T09:44:26.046Z,97416.05
2018-03-15T09:46:54.477Z,97396.22
2018-03-15T09:49:22.794Z,97403.67
2018-03-15T09:51:50.486Z,97389.03
2018-03-15T09:54:19.879Z,97405.55
2018-03-15T09:56:49.984Z,97411.54
2018-03-15T09:59:18.434Z,97411.86
2018-03-15T10:01:48.145Z,97386.84
2018-03-15T10:04:15.883Z,97364.80
2018-03-15T10:06:47.004Z,97362.78
2018-03-15T10:09:15.385Z,97353.80
2018-03-15T10:11:43.855Z,97341.70
2018-03-15T10:14:13.663Z,97330.96
2018-03-15T10:16:42.340Z,97324.55
2018-03-15T10:19:11.619Z,97317.42
2018-03-15T10:21:40.811Z,97305.98
2018-03-15T10:24:11.348Z,97308.20
2018-03-15T10:26:39.128Z,97294.37
2018-03-15T10:29:06.790Z,97269.48
2018-03-15T10:31:34.392Z,97270.42
2018-03-15T10:34:01.980Z,97301.70
2018-03-15T10:36:29.520Z,97309.91
2018-03-15T10:38:57.187Z,97337.53
2018-03-15T10:41:24.734Z,97323.56
2018-03-15T10:43:52.300Z,97321.95
2018-03-15T10:46:19.854Z,97336.80
2018-03-15T10:48:47.422Z,97332.08
2018-03-15T10:51:15.028Z,97323.80
2018-03-15T10:53:42.591Z,97331.14
2018-03-15T10:56:10.189Z,97324.64
2018-03-15T10:58:38.186Z,97320.38
2018-03-15T11:01:06.744Z,97317.19
2018-03-15T11:03:39.941Z,97308.86
2018-03-15T11:06:10.275Z,97316.11
2018-03-15T11:08:38.496Z,97304.80
2018-03-15T11:11:06.096Z,97313.28
2018-03-15T11:13:33.700Z,97300.47
2018-03-15T11:16:01.252Z,97295.94
2018-03-15T11:18:28.803Z,97287.99
2018-03-15T11:20:56.384Z,97301.94
2018-03-15T11:23:23.946Z,97293.56
2018-03-15T11:25:51.531Z,97300.94
2018-03-15T11:28:19.775Z,97274.66
2018-03-15T11:30:47.360Z,97291.38
2018-03-15T11:33:14.892Z,97286.14
2018-03-15T11:35:42.469Z,97299.30
2018-03-15T11:38:10.061Z,97294.39
2018-03-15T11:40:37.733Z,97286.82
2018-03-15T11:43:05.264Z,97281.09
2018-03-15T11:45:32.848Z,97282.08
2018-03-15T11:48:00.389Z,97276.56
2018-03-15T11:50:27.976Z,97277.28
2018-03-15T11:52:55.528Z,97268.12
2018-03-15T11:55:23.108Z,97274.50
2018-03-15T11:57:51.576Z,97265.85
2018-03-15T12:00:19.145Z,97275.48
2018-03-15T12:02:46.685Z,97266.38
2018-03-15T12:05:14.268Z,97272.49
2018-03-15T12:07:41.841Z,97273.00
2018-03-15T12:10:09.403Z,97275.69
2018-03-15T12:12:37.022Z,97267.90
2018-03-15T12:15:04.657Z,97265.84
2018-03-15T12:17:32.242Z,97262.80
2018-03-15T12:19:59.955Z,97275.27
2018-03-15T12:22:28.406Z,97262.55
2018-03-15T12:24:55.947Z,97251.17
2018-03-15T12:27:23.857Z,97268.20
2018-03-15T12:29:51.517Z,97255.02
2018-03-15T12:32:19.080Z,97255.23
2018-03-15T12:34:46.673Z,97263.02
2018-03-15T12:37:14.227Z,97255.52
2018-03-15T12:39:41.810Z,97260.61
2018-03-15T12:42:09.374Z,97248.63
2018-03-15T12:44:36.909Z,97255.73
2018-03-15T12:47:04.464Z,97263.71
2018-03-15T12:49:32.474Z,97239.40
2018-03-15T12:52:00.089Z,97251.17
2018-03-15T12:54:27.620Z,97254.28
2018-03-15T12:56:55.177Z,97220.93
2018-03-15T12:59:24.024Z,97260.58
2018-03-15T13:01:51.664Z,97243.12
2018-03-15T13:04:19.200Z,97232.14
2018-03-15T13:06:46.754Z,97238.34
2018-03-15T13:09:14.304Z,97258.75
2018-03-15T13:11:41.871Z,97237.81
2018-03-15T13:14:09.421Z,97247.64
2018-03-15T13:16:37.040Z,97244.92
2018-03-15T13:19:04.556Z,97267.95
2018-03-15T13:21:32.116Z,97245.00
2018-03-15T13:23:59.669Z,97247.72
2018-03-15T13:26:27.232Z,97246.66
2018-03-15T13:28:54.776Z,97251.36
2018-03-15T13:31:23.016Z,97243.91
2018-03-15T13:33:50.866Z,97228.97
2018-03-15T13:36:18.601Z,97219.20
2018-03-15T13:38:46.123Z,97222.22
2018-03-15T13:41:13.683Z,97243.10
2018-03-15T13:43:41.202Z,97241.51
2018-03-15T13:46:08.755Z,97247.28
2018-03-15T13:48:36.290Z,97239.78
2018-03-15T13:51:04.204Z,97239.27
2018-03-15T13:53:31.750Z,97241.67
2018-03-15T13:55:59.263Z,97228.53
2018-03-15T13:58:26.838Z,97239.35
2018-03-15T14:00:55.644Z,97233.90
2018-03-15T14:03:23.911Z,97224.39
2018-03-15T14:05:51.568Z,97215.59
2018-03-15T14:08:19.155Z,97219.41
2018-03-15T14:10:46.729Z,97203.34
2018-03-15T14:13:14.288Z,97204.45
2018-03-15T14:15:41.829Z,97200.66
2018-03-15T14:18:09.389Z,97200.11
2018-03-15T14:20:38.466Z,97186.27
2018-03-15T14:23:12.473Z,97200.56
2018-03-15T14:25:45.123Z,97183.52
2018-03-15T14:28:18.709Z,97193.65
2018-03-15T14:30:51.515Z,97185.16
2018-03-15T14:33:23.082Z,97180.66
2018-03-15T14:35:57.830Z,97176.13
2018-03-15T14:38:31.413Z,97177.09
2018-03-15T14:43:39.918Z,97176.76
2018-03-15T14:46:11.362Z,97181.81
2018-03-15T14:48:43.769Z,97189.76
2018-03-15T14:51:16.473Z,97183.91
2018-03-15T14:53:49.521Z,97189.59
2018-03-15T14:56:22.910Z,97184.88
2018-03-15T14:58:55.001Z,97182.67
2018-03-15T15:01:28.603Z,97183.66
2018-03-15T15:04:01.189Z,97187.59
2018-03-15T15:06:35.046Z,97199.23
2018-03-15T15:09:07.173Z,97204.45
2018-03-15T15:11:38.383Z,97206.31
2018-03-15T15:14:09.965Z,97202.66
2018-03-15T15:16:42.756Z,97201.95
2018-03-15T15:19:17.695Z,97188.67
2018-03-15T15:21:48.808Z,97190.22
2018-03-15T15:24:24.031Z,97187.23
2018-03-15T15:26:52.482Z,97185.44
2018-03-15T15:29:31.161Z,97198.80
2018-03-15T15:32:06.284Z,97201.70
2018-03-15T15:34:39.036Z,97223.21
2018-03-15T15:37:11.046Z,97227.59
2018-03-15T15:39:42.489Z,97241.85
2018-03-15T15:42:16.990Z,97248.89
2018-03-15T15:44:51.410Z,97251.47
2018-03-15T15:50:09.179Z,97272.58
2018-03-15T15:52:41.479Z,97275.76
2018-03-15T15:55:13.823Z,97285.81
2018-03-15T15:57:49.209Z,97282.77
2018-03-15T16:00:31.293Z,97278.98
2018-03-15T16:03:07.763Z,97284.19
2018-03-15T16:05:42.243Z,97275.72
2018-03-15T16:08:15.157Z,97274.59
2018-03-15T16:10:49.882Z,97276.74
2018-03-15T16:13:24.788Z,97272.05
2018-03-15T16:15:58.822Z,97267.67
2018-03-15T16:18:32.036Z,97270.83
2018-03-15T16:21:15.128Z,97267.98
2018-03-15T16:23:51.081Z,97263.17
2018-03-15T16:26:22.990Z,97259.83
2018-03-15T16:29:01.503Z,97261.28
2018-03-15T16:31:35.677Z,97254.78
2018-03-15T16:34:14.370Z,97257.47
2018-03-15T16:36:43.585Z,97269.00
2018-03-15T16:39:11.659Z,97267.25
2018-03-15T16:41:42.296Z,97276.19
2018-03-15T16:44:10.997Z,97280.58
2018-03-15T16:46:41.152Z,97266.61
2018-03-15T16:49:10.308Z,97280.16
2018-03-15T16:51:39.471Z,97285.21
2018-03-15T16:54:08.019Z,97285.27
2018-03-15T16:56:36.135Z,97284.38
2018-03-15T16:59:06.521Z,97283.48
2018-03-15T17:01:36.865Z,97294.27
2018-03-15T17:04:05.914Z,97285.67
2018-03-15T17:06:34.984Z,97281.93
2018-03-15T17:09:04.496Z,97279.59
2018-03-15T17:11:32.978Z,97296.12
2018-03-15T17:14:01.709Z,97303.42
2018-03-15T17:16:29.430Z,97298.48
2018-03-15T17:18:59.585Z,97297.54
2018-03-15T17:21:28.036Z,97300.64
2018-03-15T17:23:56.643Z,97301.23
2018-03-15T17:26:28.850Z,97308.63
2018-03-15T17:28:58.955Z,97309.84
2018-03-15T17:31:28.743Z,97311.60
2018-03-15T17:33:56.324Z,97317.55
2018-03-15T17:36:23.867Z,97328.19
2018-03-15T17:38:52.809Z,97332.84
2018-03-15T17:41:21.324Z,97336.41
2018-03-15T17:43:49.176Z,97333.91
2018-03-15T17:46:17.158Z,97321.09
2018-03-15T17:48:45.913Z,97330.45
2018-03-15T17:51:15.067Z,97327.39
2018-03-15T17:53:43.566Z,97324.42
2018-03-15T17:56:11.716Z,97325.16
2018-03-15T17:58:41.800Z,97339.16
2018-03-15T18:01:11.693Z,97337.16
2018-03-15T18:03:40.072Z,97343.89
2018-03-15T18:06:09.729Z,97355.91
2018-03-15T18:08:39.420Z,97349.89
2018-03-15T18:11:09.487Z,97350.34
2018-03-15T18:13:40.331Z,97353.86
2018-03-15T18:16:10.565Z,97345.74
2018-03-15T18:18:39.936Z,97358.51
2018-03-15T18:21:07.573Z,97360.84
2018-03-15T18:23:36.514Z,97364.98
2018-03-15T18:26:09.294Z,97379.75
2018-03-15T18:28:40.402Z,97382.73
2018-03-15T18:31:08.924Z,97387.93
2018-03-15T18:33:37.727Z,97392.66
2018-03-15T18:36:06.589Z,97386.58
2018-03-15T18:38:35.684Z,97391.52
2018-03-15T18:41:04.535Z,97389.41
2018-03-15T18:43:32.161Z,97384.39
2018-03-15T18:46:00.680Z,97399.73
2018-03-15T18:48:30.275Z,97390.73
2018-03-15T18:51:00.433Z,97392.61
2018-03-15T18:53:30.549Z,97397.82
2018-03-15T18:56:00.422Z,97392.63
2018-03-15T18:58:30.617Z,97402.52
2018-03-15T19:00:58.459Z,97408.36
2018-03-15T19:03:26.533Z,97405.12
2018-03-15T19:05:54.152Z,97406.65
2018-03-15T19:08:21.672Z,97403.50
2018-03-15T19:10:49.245Z,97412.11
2018-03-15T19:13:16.763Z,97413.82
2018-03-15T19:15:44.344Z,97426.25
2018-03-15T19:18:11.894Z,97423.22
2018-03-15T19:20:39.467Z,97426.05
2018-03-15T19:23:07.001Z,97436.78
2018-03-15T19:25:35.042Z,97436.84
2018-03-15T19:28:02.591Z,97435.03
2018-03-15T19:30:30.149Z,97431.72
2018-03-15T19:32:57.869Z,97426.75
2018-03-15T19:35:25.485Z,97424.22
2018-03-15T19:37:53.006Z,97432.75
2018-03-15T19:40:20.568Z,97431.69
2018-03-15T19:42:48.333Z,97442.14
2018-03-15T19:45:15.938Z,97444.14
2018-03-15T19:47:43.471Z,97440.47
2018-03-15T19:50:11.020Z,97447.94
2018-03-15T19:52:38.750Z,97442.09
2018-03-15T19:55:10.424Z,97450.15
2018-03-15T19:57:38.374Z,97454.23
2018-03-15T20:00:06.026Z,97451.98
2018-03-15T20:02:33.547Z,97446.72
2018-03-15T20:05:01.327Z,97447.13
2018-03-15T20:07:28.901Z,97450.97
2018-03-15T20:09:56.891Z,97463.75
2018-03-15T20:12:25.047Z,97452.56
2018-03-15T20:14:52.597Z,97457.05
2018-03-15T20:17:21.349Z,97460.20
2018-03-15T20:19:48.984Z,97456.39
2018-03-15T20:22:16.927Z,97466.84
2018-03-15T20:24:46.877Z,97464.69
2018-03-15T20:27:14.634Z,97466.25
2018-03-15T20:29:47.287Z,97467.42
2018-03-15T20:32:14.855Z,97465.54
2018-03-15T20:34:42.402Z,97473.55
2018-03-15T20:37:09.963Z,97467.02
2018-03-15T20:42:39.617Z,97476.98
2018-03-15T20:45:07.236Z,97479.92
2018-03-15T20:47:40.825Z,97482.33
2018-03-15T20:50:08.370Z,97486.95
2018-03-15T20:52:35.941Z,97491.69
2018-03-15T20:55:03.472Z,97482.94
2018-03-15T20:57:31.048Z,97495.89
2018-03-15T20:59:58.606Z,97493.86
2018-03-15T21:02:26.167Z,97497.61
2018-03-15T21:04:53.693Z,97495.89
2018-03-15T21:07:21.270Z,97488.79
2018-03-15T21:09:48.789Z,97503.38
2018-03-15T21:12:16.370Z,97505.38
2018-03-15T21:14:43.901Z,97503.58
2018-03-15T21:17:11.477Z,97505.86
2018-03-15T21:19:39.028Z,97502.72
2018-03-15T21:22:06.608Z,97504.34
2018-03-15T21:24:34.140Z,97507.08
2018-03-15T21:27:01.807Z,97498.63
2018-03-15T21:29:29.269Z,97499.36
2018-03-15T21:31:56.832Z,97498.70
2018-03-15T21:34:24.373Z,97501.20
2018-03-15T21:37:03.667Z,97500.42
2018-03-15T21:39:31.188Z,97500.27
2018-03-15T21:41:58.732Z,97503.61
2018-03-15T21:44:26.247Z,97505.17
2018-03-15T21:46:53.804Z,97517.95
2018-03-15T21:49:21.339Z,97515.09
2018-03-15T21:51:48.938Z,97510.84
2018-03-15T21:54:16.436Z,97510.16
2018-03-15T21:56:43.991Z,97513.14
2018-03-15T21:59:11.552Z,97519.98
2018-03-15T22:01:39.099Z,97520.57
2018-03-15T22:04:06.741Z,97520.25
2018-03-15T22:06:34.304Z,97521.97
2018-03-15T22:09:01.823Z,97518.48
2018-03-15T22:11:30.406Z,97520.03
2018-03-15T22:13:58.334Z,97518.61
2018-03-15T22:16:27.292Z,97522.45
2018-03-15T22:18:57.442Z,97524.94
2018-03-15T22:21:25.787Z,97527.27
2018-03-15T22:23:53.590Z,97527.09
2018-03-15T22:26:23.293Z,97527.30
2018-03-15T22:28:53.060Z,97526.20
2018-03-15T22:31:21.832Z,97529.96
2018-03-15T22:33:51.331Z,97525.15
2018-03-15T22:36:19.793Z,97525.48
2018-03-15T22:38:48.152Z,97523.34
2018-03-15T22:41:19.292Z,97525.72
2018-03-15T22:43:47.015Z,97520.19
2018-03-15T22:46:15.404Z,97527.54
2018-03-15T22:48:44.055Z,97522.64
2018-03-15T22:51:12.481Z,97524.89
2018-03-15T22:53:40.243Z,97522.81
2018-03-15T22:56:08.875Z,97520.64
2018-03-15T22:58:37.090Z,97522.96
2018-03-15T23:01:07.025Z,97521.55
2018-03-15T23:03:36.759Z,97532.80
2018-03-15T23:06:04.410Z,97531.50
2018-03-15T23:08:31.955Z,97530.41
2018-03-15T23:11:02.347Z,97532.91
2018-03-15T23:13:31.454Z,97540.38
2018-03-15T23:16:00.552Z,97544.90
2018-03-15T23:18:29.381Z,97550.98
2018-03-15T23:20:56.920Z,97554.91
2018-03-15T23:23:24.484Z,97548.92
2018-03-15T23:25:53.532Z,97559.59
2018-03-15T23:28:24.752Z,97555.25
2018-03-15T23:30:52.926Z,97553.53
2018-03-15T23:33:20.851Z,97560.48
2018-03-15T23:35:48.717Z,97564.64
2018-03-15T23:38:16.447Z,97566.60
2018-03-15T23:40:43.965Z,97564.03
2018-03-15T23:43:12.776Z,97567.74
2018-03-15T23:45:42.488Z,97572.39
2018-03-15T23:48:11.490Z,97572.58
2018-03-15T23:50:39.890Z,97582.89
2018-03-15T23:53:12.822Z,97577.77
2018-03-15T23:55:41.147Z,97578.69
2018-03-15T23:58:10.337Z,97578.98
